Time;durP1;ratioP1;P1;durP2;ratioP2;P2;SDS_P1;SDS_P2;PMS_P1;PMS_P2;Temp;Humidity;BMP_temperature;BMP_pressure;BME280_temperature;BME280_humidity;BME280_pressure;Samples;Min_cycle;Max_cycle;Signal;HPM_P1;HPM_P2
2023/01/24 00:01:37;;;;;;;18.70;12.88;;;;;;;3.43;69.60;102369.44;4190428;28;20119;-67
2023/01/24 00:03:40;;;;;;;21.80;14.48;;;;;;;3.43;69.04;102363.38;4188167;28;20036;-66
2023/01/24 00:05:45;;;;;;;20.48;13.65;;;;;;;3.44;69.30;102366.06;4188372;28;20058;-66
2023/01/24 00:07:48;;;;;;;21.25;13.57;;;;;;;3.44;69.39;102365.16;4193669;28;20040;-66
2023/01/24 00:09:52;;;;;;;21.02;14.00;;;;;;;3.40;69.21;102361.50;4193095;28;20402;-66
2023/01/24 00:11:55;;;;;;;22.92;14.57;;;;;;;3.40;69.17;102364.06;4193485;28;20032;-66
2023/01/24 00:13:57;;;;;;;23.58;12.60;;;;;;;3.41;69.08;102360.69;4188420;28;20449;-66
2023/01/24 00:16:06;;;;;;;20.38;13.27;;;;;;;3.41;69.41;102358.13;4193771;28;20043;-66
2023/01/24 00:18:09;;;;;;;20.02;12.93;;;;;;;3.32;69.66;102365.16;4193448;28;20045;-66
2023/01/24 00:20:12;;;;;;;18.02;12.35;;;;;;;3.38;68.99;102368.19;4189133;28;20086;-66
2023/01/24 00:22:15;;;;;;;20.60;13.23;;;;;;;3.30;69.66;102362.47;4185545;28;20068;-65
2023/01/24 00:24:18;;;;;;;20.33;13.00;;;;;;;3.35;69.64;102364.50;4194704;28;20032;-65
2023/01/24 00:26:24;;;;;;;22.70;13.88;;;;;;;3.38;69.65;102359.59;4189180;28;20098;-65
2023/01/24 00:28:26;;;;;;;20.05;12.55;;;;;;;3.37;69.04;102366.38;4195508;28;20479;-66
2023/01/24 00:30:29;;;;;;;21.27;13.05;;;;;;;3.33;69.45;102359.25;4193190;28;20548;-66
2023/01/24 00:32:33;;;;;;;20.55;13.45;;;;;;;3.32;69.21;102360.03;4188675;28;20037;-66
2023/01/24 00:34:36;;;;;;;18.75;12.77;;;;;;;3.26;69.14;102354.44;4176392;28;20052;-65
2023/01/24 00:36:40;;;;;;;19.35;12.63;;;;;;;3.24;69.34;102351.75;4172884;28;20037;-65
2023/01/24 00:38:44;;;;;;;19.17;12.68;;;;;;;3.27;69.52;102357.13;4193950;28;20040;-66
2023/01/24 00:40:47;;;;;;;18.48;11.93;;;;;;;3.27;70.08;102358.78;4175939;28;20033;-65
2023/01/24 00:42:52;;;;;;;20.73;12.25;;;;;;;3.35;69.33;102360.25;4199317;28;20085;-66
2023/01/24 00:44:54;;;;;;;19.95;12.77;;;;;;;3.31;69.43;102356.56;4188318;28;20032;-65
2023/01/24 00:46:57;;;;;;;19.25;12.82;;;;;;;3.36;69.39;102359.47;4179190;28;20045;-65
2023/01/24 00:49:00;;;;;;;20.67;13.23;;;;;;;3.23;69.32;102359.34;4190588;28;20086;-66
2023/01/24 00:51:04;;;;;;;21.35;13.55;;;;;;;3.21;69.78;102360.88;4190528;28;20422;-65
2023/01/24 00:53:07;;;;;;;19.33;13.35;;;;;;;3.17;69.51;102362.34;4189248;28;20040;-66
2023/01/24 00:55:10;;;;;;;21.88;13.48;;;;;;;3.15;70.00;102356.19;4189131;28;20406;-65
2023/01/24 00:57:12;;;;;;;20.95;13.52;;;;;;;3.19;69.66;102357.31;4171797;28;20044;-65
2023/01/24 00:59:17;;;;;;;20.77;12.90;;;;;;;3.22;69.34;102355.84;4192111;28;20033;-66
2023/01/24 01:01:20;;;;;;;21.00;13.75;;;;;;;3.17;69.67;102364.00;4190920;28;20036;-66
2023/01/24 01:03:23;;;;;;;19.08;12.80;;;;;;;3.23;69.87;102364.50;4185320;28;20407;-66
2023/01/24 01:05:26;;;;;;;18.35;11.77;;;;;;;3.27;69.53;102362.25;4186139;28;20033;-66
2023/01/24 01:07:28;;;;;;;18.52;12.68;;;;;;;3.28;69.52;102360.56;4191435;28;20398;-65
2023/01/24 01:09:31;;;;;;;19.90;13.43;;;;;;;3.17;69.35;102367.50;4192238;28;20124;-65
2023/01/24 01:11:34;;;;;;;18.13;11.82;;;;;;;3.27;69.15;102369.97;4192064;28;20036;-65
2023/01/24 01:13:37;;;;;;;19.55;12.77;;;;;;;3.19;69.58;102365.03;4189680;28;20119;-65
2023/01/24 01:15:41;;;;;;;20.73;12.85;;;;;;;3.29;69.17;102372.66;4181385;28;20033;-65
2023/01/24 01:17:44;;;;;;;19.25;11.90;;;;;;;3.21;69.55;102376.31;4185470;28;20041;-65
2023/01/24 01:19:51;;;;;;;18.23;12.43;;;;;;;3.31;68.91;102368.50;4194136;28;20067;-65
2023/01/24 01:21:54;;;;;;;18.33;11.90;;;;;;;3.24;68.83;102369.75;4170722;28;20042;-65
2023/01/24 01:23:57;;;;;;;17.13;11.52;;;;;;;3.24;69.02;102371.41;4192899;28;20036;-65
2023/01/24 01:26:00;;;;;;;19.25;12.27;;;;;;;3.30;68.56;102377.91;4188196;28;20033;-65
2023/01/24 01:28:03;;;;;;;17.52;11.90;;;;;;;3.24;69.55;102371.41;4189155;28;20044;-65
2023/01/24 01:30:07;;;;;;;19.40;12.13;;;;;;;3.26;69.07;102375.88;4192691;28;20048;-65
2023/01/24 01:32:12;;;;;;;17.92;12.07;;;;;;;3.32;69.12;102375.44;4186643;28;20040;-67
2023/01/24 01:34:14;;;;;;;18.98;11.60;;;;;;;3.39;68.44;102380.25;4174031;28;20075;-66
2023/01/24 01:36:17;;;;;;;20.48;12.48;;;;;;;3.35;68.74;102380.81;4176187;28;20597;-65
2023/01/24 01:38:20;;;;;;;20.35;12.32;;;;;;;3.31;69.43;102379.69;4193978;28;20487;-65
2023/01/24 01:40:23;;;;;;;19.02;12.23;;;;;;;3.31;68.60;102386.50;4171950;28;20044;-65
2023/01/24 01:42:26;;;;;;;17.20;11.65;;;;;;;3.24;69.16;102386.81;4176900;28;20084;-65
2023/01/24 01:44:42;;;;;;;18.13;12.73;;;;;;;3.26;69.24;102387.84;4190470;28;20037;-65
2023/01/24 01:46:50;;;;;;;20.23;12.07;;;;;;;3.19;69.65;102398.44;4193009;28;20028;-65
2023/01/24 01:48:59;;;;;;;19.42;11.93;;;;;;;3.28;69.67;102391.41;4185340;28;20068;-65
2023/01/24 01:51:07;;;;;;;19.75;11.73;;;;;;;3.30;69.27;102387.28;4182045;28;20033;-65
2023/01/24 01:53:11;;;;;;;20.17;11.98;;;;;;;3.19;68.96;102388.16;4185081;28;20044;-65
2023/01/24 01:55:17;;;;;;;17.38;12.15;;;;;;;3.20;69.26;102390.84;4186449;28;20037;-66
2023/01/24 01:57:23;;;;;;;17.95;12.32;;;;;;;3.28;69.42;102391.41;4193757;28;20047;-65
2023/01/24 01:59:31;;;;;;;17.88;12.07;;;;;;;3.24;69.26;102397.09;4186211;28;20037;-65
2023/01/24 02:01:34;;;;;;;17.42;11.63;;;;;;;3.24;68.82;102392.88;4189028;28;20041;-65
2023/01/24 02:03:43;;;;;;;17.17;11.45;;;;;;;3.29;68.38;102391.53;4183378;28;20094;-65
2023/01/24 02:05:48;;;;;;;19.67;12.63;;;;;;;3.21;69.05;102390.03;4192156;28;20506;-65
2023/01/24 02:07:55;;;;;;;18.88;12.27;;;;;;;3.26;69.07;102393.00;4189121;28;20036;-63
2023/01/24 02:09:59;;;;;;;19.17;12.35;;;;;;;3.26;68.90;102391.31;4175702;28;20132;-66
2023/01/24 02:12:05;;;;;;;17.88;11.60;;;;;;;3.21;69.06;102402.00;4189823;28;20045;-66
2023/01/24 02:16:32;;;;;;;17.88;11.20;;;;;;;3.28;68.38;102400.00;4187319;28;20056;-65
2023/01/24 02:18:37;;;;;;;17.08;10.18;;;;;;;3.30;68.39;102398.47;4177662;28;20128;-66
2023/01/24 02:20:42;;;;;;;19.33;12.20;;;;;;;3.31;68.63;102405.41;4190360;28;20047;-66
2023/01/24 02:22:56;;;;;;;19.27;12.32;;;;;;;3.25;69.09;102410.06;4194136;28;20037;-66
2023/01/24 02:25:07;;;;;;;17.23;11.02;;;;;;;3.29;69.15;102411.22;4171287;28;20119;-66
2023/01/24 02:27:11;;;;;;;19.90;12.63;;;;;;;3.30;69.07;102418.13;4186702;28;20062;-66
2023/01/24 02:29:16;;;;;;;17.30;11.43;;;;;;;3.25;69.07;102409.19;4190338;28;20413;-63
2023/01/24 02:31:19;;;;;;;16.08;10.77;;;;;;;3.35;68.98;102415.91;4191377;28;20123;-63
2023/01/24 02:33:22;;;;;;;15.52;11.35;;;;;;;3.38;68.61;102417.03;4193547;28;20149;-64
2023/01/24 02:35:28;;;;;;;19.60;11.05;;;;;;;3.40;69.15;102419.72;4193431;28;20583;-66
2023/01/24 02:37:32;;;;;;;15.55;10.68;;;;;;;3.44;68.58;102417.47;4192671;28;20458;-66
2023/01/24 02:39:44;;;;;;;17.55;11.18;;;;;;;3.44;67.78;102416.59;4194186;28;20044;-66
2023/01/24 02:41:50;;;;;;;16.17;10.30;;;;;;;3.52;68.02;102418.06;4196212;28;20124;-66
2023/01/24 02:44:02;;;;;;;15.50;9.90;;;;;;;3.44;67.54;102422.63;4193435;28;20044;-66
2023/01/24 02:46:05;;;;;;;14.68;9.70;;;;;;;3.38;67.80;102422.16;4188833;28;20043;-66
2023/01/24 02:48:08;;;;;;;14.80;8.85;;;;;;;3.43;68.29;102427.66;4194694;28;20044;-66
2023/01/24 02:50:12;;;;;;;15.82;10.23;;;;;;;3.43;68.07;102436.28;4195832;28;20464;-68
2023/01/24 02:54:35;;;;;;;15.07;10.05;;;;;;;3.36;68.03;102430.53;4182373;28;20063;-64
2023/01/24 02:59:00;;;;;;;14.85;9.70;;;;;;;3.41;67.97;102432.69;4172516;28;20067;-64
2023/01/24 03:01:04;;;;;;;14.45;9.73;;;;;;;3.35;68.11;102427.09;4191259;28;20131;-64
2023/01/24 03:03:09;;;;;;;14.05;9.60;;;;;;;3.35;68.68;102428.78;4196759;28;20036;-64
2023/01/24 03:05:13;;;;;;;14.82;9.95;;;;;;;3.33;68.78;102426.09;4195262;28;20067;-64
2023/01/24 03:07:17;;;;;;;16.73;10.20;;;;;;;3.47;67.98;102421.97;4189979;28;20428;-64
2023/01/24 03:09:34;;;;;;;16.67;9.77;;;;;;;3.41;68.49;102431.78;4172206;28;20055;-64
2023/01/24 03:11:38;;;;;;;16.98;10.85;;;;;;;3.41;68.12;102427.53;4193549;28;20043;-64
2023/01/24 03:34:54;;;;;;;15.07;8.73;;;;;;;3.47;67.70;102425.41;4185287;28;21677;-63
2023/01/24 03:37:02;;;;;;;12.70;8.48;;;;;;;3.46;67.09;102423.66;4192367;28;20473;-64
2023/01/24 03:41:27;;;;;;;13.95;8.98;;;;;;;3.39;68.33;102428.19;4175411;28;20037;-64
2023/01/24 03:43:30;;;;;;;14.85;9.98;;;;;;;3.45;67.89;102426.09;4175818;28;20041;-64
2023/01/24 03:45:36;;;;;;;13.82;8.75;;;;;;;3.55;67.51;102425.09;4193845;28;20037;-64
2023/01/24 03:47:41;;;;;;;13.68;9.05;;;;;;;3.42;67.82;102431.91;4182886;28;20069;-63
2023/01/24 03:54:26;;;;;;;12.32;8.60;;;;;;;3.54;67.42;102411.34;4177433;28;20037;-64
2023/01/24 03:56:34;;;;;;;14.95;10.18;;;;;;;3.51;66.68;102408.56;4195143;28;20040;-64
2023/01/24 03:58:37;;;;;;;13.63;9.05;;;;;;;3.46;67.70;102410.78;4188601;28;20056;-64
2023/01/24 04:00:43;;;;;;;13.75;8.73;;;;;;;3.52;67.41;102405.22;4186534;28;20045;-64
2023/01/24 04:03:04;;;;;;;15.40;9.50;;;;;;;3.39;67.97;102410.19;4186725;28;20037;-64
2023/01/24 04:05:14;;;;;;;14.90;9.52;;;;;;;3.47;67.25;102407.41;4175041;28;20487;-64
2023/01/24 04:07:19;;;;;;;12.65;8.65;;;;;;;3.52;67.25;102409.44;4194685;28;20029;-64
2023/01/24 04:09:38;;;;;;;12.88;9.45;;;;;;;3.49;67.02;102403.31;4193217;28;20115;-65
2023/01/24 04:11:41;;;;;;;14.25;9.43;;;;;;;3.42;67.27;102408.78;4194522;28;20127;-64
2023/01/24 04:13:52;;;;;;;15.50;9.48;;;;;;;3.39;68.28;102408.53;4170042;28;20040;-64
2023/01/24 04:15:55;;;;;;;14.23;9.07;;;;;;;3.36;68.22;102407.41;4191215;28;20040;-65
2023/01/24 04:18:17;;;;;;;14.70;10.13;;;;;;;3.40;68.22;102405.19;4169867;28;20041;-64
2023/01/24 04:20:20;;;;;;;14.32;10.27;;;;;;;3.47;67.46;102407.41;4191122;28;20601;-64
2023/01/24 04:22:23;;;;;;;15.77;9.70;;;;;;;3.74;66.17;102410.25;4192925;28;20102;-64
2023/01/24 04:24:28;;;;;;;13.90;8.48;;;;;;;3.69;66.51;102405.56;4186887;28;20064;-64
2023/01/24 04:26:31;;;;;;;14.98;9.07;;;;;;;3.55;66.89;102409.66;4175648;28;20052;-64
2023/01/24 04:28:35;;;;;;;14.32;9.48;;;;;;;3.41;67.01;102406.97;4192127;28;20030;-64
2023/01/24 04:30:39;;;;;;;11.95;8.65;;;;;;;3.51;67.10;102405.09;4181130;28;20037;-64
2023/01/24 04:32:52;;;;;;;13.98;8.88;;;;;;;3.35;67.57;102411.66;4186700;28;20032;-64
2023/01/24 04:35:00;;;;;;;13.95;9.93;;;;;;;3.40;67.77;102415.47;4185249;28;20043;-64
2023/01/24 04:37:20;;;;;;;15.07;9.55;;;;;;;3.53;67.00;102409.56;4193237;28;20049;-65
2023/01/24 04:39:23;;;;;;;14.50;9.23;;;;;;;3.49;67.23;102410.13;4192750;28;20033;-64
2023/01/24 04:41:37;;;;;;;13.18;9.18;;;;;;;3.49;66.89;102412.72;4185015;28;20119;-65
2023/01/24 04:43:40;;;;;;;13.95;9.38;;;;;;;3.47;67.34;102412.56;4187758;28;20123;-64
2023/01/24 04:45:42;;;;;;;14.65;8.82;;;;;;;3.49;67.21;102413.59;4189933;28;20191;-64
2023/01/24 04:47:49;;;;;;;12.75;8.07;;;;;;;3.48;67.53;102411.78;4184206;28;20568;-65
2023/01/24 04:49:52;;;;;;;12.43;7.93;;;;;;;3.46;67.48;102408.22;4188776;28;20036;-64
2023/01/24 04:51:57;;;;;;;12.23;8.15;;;;;;;3.51;66.49;102407.69;4186332;28;20037;-65
2023/01/24 04:54:07;;;;;;;12.55;8.45;;;;;;;3.50;66.63;102409.34;4200256;28;20151;-64
2023/01/24 04:56:11;;;;;;;10.87;7.50;;;;;;;3.52;66.91;102406.88;4190883;28;20036;-64
2023/01/24 04:58:14;;;;;;;13.90;8.70;;;;;;;3.44;67.13;102398.59;4192099;28;20900;-64
2023/01/24 05:00:17;;;;;;;12.75;7.85;;;;;;;3.44;66.58;102393.47;4192269;28;20513;-64
2023/01/24 05:02:21;;;;;;;11.65;7.32;;;;;;;3.48;66.96;102392.91;4174705;28;20095;-64
2023/01/24 05:04:24;;;;;;;14.90;8.88;;;;;;;3.37;67.37;102394.66;4189498;28;20040;-64
2023/01/24 05:06:28;;;;;;;16.40;10.75;;;;;;;3.32;67.44;102388.28;4190022;28;20106;-64
2023/01/24 05:08:33;;;;;;;13.45;9.20;;;;;;;3.36;67.62;102390.31;4183992;28;20127;-64
2023/01/24 05:10:39;;;;;;;16.98;10.65;;;;;;;3.32;68.04;102388.28;4191518;28;20044;-64
2023/01/24 05:12:42;;;;;;;19.13;8.88;;;;;;;3.37;67.49;102397.22;4193251;28;20037;-65
2023/01/24 05:14:50;;;;;;;15.13;9.10;;;;;;;3.28;68.30;102404.25;4192839;28;20040;-65
2023/01/24 05:16:53;;;;;;;14.07;8.73;;;;;;;3.37;67.63;102404.06;4192190;28;20115;-64
2023/01/24 05:18:56;;;;;;;13.27;8.50;;;;;;;3.41;67.40;102403.50;4183382;28;20029;-64
2023/01/24 05:21:06;;;;;;;14.60;8.88;;;;;;;3.26;67.75;102409.28;4187013;28;20461;-64
2023/01/24 05:23:09;;;;;;;15.70;10.18;;;;;;;3.20;68.34;102410.50;4193035;28;20491;-64
2023/01/24 05:25:17;;;;;;;14.43;10.05;;;;;;;3.24;68.90;102412.53;4189269;28;20067;-64
2023/01/24 05:27:20;;;;;;;;;;;;;;;3.30;67.50;102405.25;4187503;28;20068;-64
2023/01/24 05:29:30;;;;;;;14.68;9.20;;;;;;;3.34;68.02;102417.56;4174656;28;19956;-65
2023/01/24 05:31:36;;;;;;;13.27;8.88;;;;;;;3.52;67.61;102420.66;4185470;28;20075;-65
2023/01/24 05:33:40;;;;;;;14.82;9.48;;;;;;;3.48;66.89;102424.66;4175986;28;20052;-65
2023/01/24 05:35:44;;;;;;;15.50;9.10;;;;;;;3.45;66.36;102426.09;4175396;28;20124;-64
2023/01/24 05:37:47;;;;;;;11.50;7.57;;;;;;;3.48;67.14;102424.66;4179866;28;20056;-65
2023/01/24 05:39:53;;;;;;;13.02;8.27;;;;;;;3.39;67.34;102429.13;4189046;28;20041;-65
2023/01/24 05:41:57;;;;;;;14.18;8.93;;;;;;;3.31;67.88;102431.13;4190577;28;20036;-65
2023/01/24 05:44:07;;;;;;;11.48;8.10;;;;;;;3.33;67.26;102431.22;4192990;28;20379;-64
2023/01/24 05:46:16;;;;;;;15.15;9.05;;;;;;;3.34;67.41;102443.28;4192610;28;20452;-64
2023/01/24 05:48:29;;;;;;;14.10;8.55;;;;;;;3.30;67.45;102444.75;4185355;28;20530;-64
2023/01/24 05:50:33;;;;;;;14.55;8.75;;;;;;;3.28;67.56;102456.56;4194678;28;20249;-64
2023/01/24 05:52:45;;;;;;;13.98;9.35;;;;;;;3.38;67.35;102450.44;4196848;28;20761;-64
2023/01/24 05:54:48;;;;;;;13.50;8.88;;;;;;;3.27;67.87;102449.66;4179481;28;20068;-65
2023/01/24 05:57:13;;;;;;;13.90;8.68;;;;;;;3.39;67.25;102448.75;4191297;28;20135;-67
2023/01/24 05:59:38;;;;;;;14.63;9.43;;;;;;;3.42;66.78;102444.75;4191083;28;20025;-65
2023/01/24 06:01:43;;;;;;;14.98;8.90;;;;;;;3.33;67.25;102462.06;4195824;28;20036;-66
2023/01/24 06:03:47;;;;;;;15.98;10.05;;;;;;;3.37;67.12;102466.66;4195781;28;20166;-65
2023/01/24 06:05:54;;;;;;;14.35;9.95;;;;;;;3.36;67.25;102466.53;4188545;28;20074;-65
2023/01/24 06:07:59;;;;;;;16.70;9.77;;;;;;;3.26;67.46;102465.84;4182801;28;20040;-65
2023/01/24 06:10:03;;;;;;;15.05;9.00;;;;;;;3.24;67.83;102471.63;4189928;28;20418;-66
2023/01/24 06:12:18;;;;;;;15.30;9.82;;;;;;;3.25;67.76;102474.31;4176032;28;20037;-65
2023/01/24 06:14:21;;;;;;;13.52;9.43;;;;;;;3.40;67.84;102472.03;4196565;28;20029;-66
2023/01/24 06:16:26;;;;;;;18.55;10.30;;;;;;;3.41;67.78;102473.81;4191407;28;20120;-66
2023/01/24 06:18:29;;;;;;;14.95;9.65;;;;;;;3.40;67.67;102481.41;4195721;28;20043;-66
2023/01/24 06:20:33;;;;;;;15.55;9.40;;;;;;;3.43;67.42;102481.66;4196371;28;20040;-66
2023/01/24 06:22:45;;;;;;;15.17;9.70;;;;;;;3.38;67.27;102478.72;4191283;28;20555;-65
2023/01/24 06:24:48;;;;;;;13.43;8.57;;;;;;;3.28;67.83;102482.25;4190075;28;20041;-65
2023/01/24 06:27:03;;;;;;;14.27;9.15;;;;;;;3.35;68.20;102486.22;4191269;28;20515;-65
2023/01/24 06:29:10;;;;;;;16.20;9.30;;;;;;;3.49;67.34;102483.00;4195101;28;20047;-65
2023/01/24 06:31:23;;;;;;;15.50;9.57;;;;;;;3.33;68.21;102490.34;4183630;28;20047;-65
2023/01/24 06:33:37;;;;;;;15.25;9.23;;;;;;;3.30;67.86;102487.53;4193360;28;20586;-65
2023/01/24 06:35:56;;;;;;;15.63;9.68;;;;;;;3.36;68.03;102494.81;4194911;28;20089;-65
2023/01/24 06:37:59;;;;;;;15.43;10.15;;;;;;;3.32;67.98;102488.56;4190358;28;20052;-65
2023/01/24 06:40:05;;;;;;;18.42;10.25;;;;;;;3.41;67.39;102489.25;4196067;28;20036;-66
2023/01/24 06:42:09;;;;;;;14.93;10.07;;;;;;;3.41;68.22;102489.25;4176263;28;20149;-65
2023/01/24 06:44:14;;;;;;;;;;;;;;;3.29;68.38;102498.59;4186498;28;20533;-65
2023/01/24 06:46:17;;;;;;;14.90;10.10;;;;;;;3.28;68.42;102494.22;4197312;28;20514;-66
2023/01/24 06:48:19;;;;;;;17.15;11.20;;;;;;;3.28;68.14;102496.81;4196874;28;20042;-66
2023/01/24 06:50:23;;;;;;;16.30;10.05;;;;;;;3.31;68.50;102485.09;4177504;28;20049;-65
2023/01/24 06:52:26;;;;;;;16.67;9.93;;;;;;;3.29;68.21;102502.06;4194364;28;20490;-66
2023/01/24 06:54:29;;;;;;;15.98;10.82;;;;;;;3.29;68.41;102506.31;4193009;28;20041;-65
2023/01/24 06:56:32;;;;;;;15.82;10.38;;;;;;;3.31;68.48;102502.19;4189100;28;20043;-65
2023/01/24 06:58:34;;;;;;;16.55;10.65;;;;;;;3.26;68.84;102504.41;4188670;28;20037;-65
2023/01/24 07:00:39;;;;;;;15.73;10.88;;;;;;;3.28;68.33;102507.09;4177678;28;20473;-65
2023/01/24 07:02:42;;;;;;;16.13;10.18;;;;;;;3.26;68.48;102512.13;4183494;28;20091;-66
2023/01/24 07:04:45;;;;;;;16.52;10.90;;;;;;;3.22;69.06;102506.63;4186995;28;20041;-65
2023/01/24 07:06:52;;;;;;;17.30;11.00;;;;;;;3.37;68.19;102497.50;4183731;28;20041;-65
2023/01/24 07:08:55;;;;;;;17.60;10.88;;;;;;;3.41;68.02;102509.81;4189575;28;20067;-63
2023/01/24 07:10:59;;;;;;;20.95;11.43;;;;;;;3.30;68.09;102511.56;4183810;28;20044;-65
2023/01/24 07:13:02;;;;;;;18.25;11.65;;;;;;;3.38;68.36;102511.28;4202492;28;20036;-65
2023/01/24 07:15:06;;;;;;;16.45;10.80;;;;;;;3.30;68.54;102511.56;4193013;28;20128;-65
2023/01/24 07:17:11;;;;;;;18.38;11.73;;;;;;;3.32;68.59;102514.25;4184527;28;20041;-65
2023/01/24 07:19:17;;;;;;;22.88;12.70;;;;;;;3.42;68.36;102510.72;4194188;28;20380;-65
2023/01/24 07:21:21;;;;;;;23.83;13.30;;;;;;;3.43;68.35;102504.78;4192359;28;20036;-65
2023/01/24 07:23:27;;;;;;;16.73;11.05;;;;;;;3.37;68.74;102512.91;4187053;28;20047;-65
2023/01/24 07:25:31;;;;;;;18.55;11.70;;;;;;;3.36;67.96;102510.22;4184010;28;20132;-65
2023/01/24 07:27:35;;;;;;;21.23;13.02;;;;;;;3.15;68.88;102515.53;4184101;28;20140;-65
2023/01/24 07:29:38;;;;;;;21.42;12.77;;;;;;;3.26;69.30;102518.94;4189287;28;20029;-65
2023/01/24 07:31:40;;;;;;;19.73;11.50;;;;;;;3.40;68.49;102514.84;4195563;28;20040;-66
2023/01/24 07:33:45;;;;;;;18.13;12.38;;;;;;;3.31;69.11;102527.88;4185498;28;20036;-65
2023/01/24 07:35:49;;;;;;;19.48;11.60;;;;;;;3.27;68.84;102523.28;4185801;28;20041;-65
2023/01/24 07:37:52;;;;;;;18.90;11.75;;;;;;;3.35;68.71;102526.47;4189387;28;20071;-65
2023/01/24 07:39:55;;;;;;;18.10;11.25;;;;;;;3.32;69.09;102519.41;4197758;28;20040;-66
2023/01/24 07:41:58;;;;;;;17.73;11.55;;;;;;;3.32;68.77;102525.44;4181617;28;20041;-66
2023/01/24 07:44:04;;;;;;;19.63;11.07;;;;;;;3.38;68.54;102526.69;4187718;28;20097;-66
2023/01/24 07:46:07;;;;;;;21.58;12.52;;;;;;;3.30;68.84;102527.00;4185582;28;20036;-65
2023/01/24 07:48:10;;;;;;;21.05;12.93;;;;;;;3.34;69.16;102533.25;4185024;28;20040;-65
2023/01/24 07:50:14;;;;;;;18.25;12.38;;;;;;;3.44;68.85;102530.63;4194666;28;20040;-65
2023/01/24 07:52:17;;;;;;;20.40;12.70;;;;;;;3.38;69.07;102540.44;4194719;28;20502;-65
2023/01/24 07:54:20;;;;;;;20.08;12.38;;;;;;;3.37;69.06;102535.19;4184053;28;20559;-65
2023/01/24 07:56:23;;;;;;;19.42;12.60;;;;;;;3.41;69.00;102540.66;4190273;28;20043;-66
2023/01/24 07:58:28;;;;;;;20.88;11.90;;;;;;;3.41;68.58;102545.81;4186686;28;20048;-66
2023/01/24 08:00:31;;;;;;;19.52;13.20;;;;;;;3.25;68.87;102538.59;4194083;28;20505;-66
2023/01/24 08:02:34;;;;;;;20.35;12.38;;;;;;;3.26;69.31;102545.53;4194559;28;20036;-66
2023/01/24 08:04:37;;;;;;;17.48;13.10;;;;;;;3.41;69.12;102547.50;4185720;28;20560;-66
2023/01/24 08:07:16;;;;;;;20.10;12.93;;;;;;;3.36;69.02;102546.22;4190275;28;20110;-66
2023/01/24 08:09:04;;;;;;;22.75;13.18;;;;;;;3.38;69.11;102548.16;4183355;28;20506;-66
2023/01/24 08:11:10;;;;;;;20.40;13.38;;;;;;;3.32;69.26;102545.09;4184631;28;20041;-66
2023/01/24 08:13:13;;;;;;;19.38;12.43;;;;;;;3.44;68.91;102540.00;4194441;28;20045;-65
2023/01/24 08:15:16;;;;;;;19.83;13.07;;;;;;;3.41;69.21;102550.94;4191687;28;20040;-66
2023/01/24 08:17:19;;;;;;;24.40;12.05;;;;;;;3.45;68.99;102552.09;4189352;28;20051;-66
2023/01/24 08:19:22;;;;;;;18.08;11.88;;;;;;;3.48;68.84;102554.91;4194152;28;20071;-66
2023/01/24 08:21:46;;;;;;;20.90;12.68;;;;;;;3.43;68.94;102554.56;4206447;28;20036;-66
2023/01/24 08:23:49;;;;;;;19.73;11.20;;;;;;;3.49;68.48;102560.16;4188741;28;20051;-66
2023/01/24 08:25:52;;;;;;;16.67;11.50;;;;;;;3.55;68.49;102554.59;4191017;28;20055;-65
2023/01/24 08:27:55;;;;;;;19.33;12.57;;;;;;;3.46;69.45;102559.94;4191493;28;20033;-65
2023/01/24 08:29:57;;;;;;;20.40;13.10;;;;;;;3.48;68.97;102557.47;4187924;28;20120;-66
2023/01/24 08:32:00;;;;;;;22.40;13.77;;;;;;;3.43;69.33;102549.41;4195179;28;20036;-66
2023/01/24 08:34:03;;;;;;;20.10;12.20;;;;;;;3.47;69.52;102546.28;4190963;28;20436;-66
2023/01/24 08:36:06;;;;;;;19.98;12.13;;;;;;;3.48;69.07;102555.78;4195454;28;20082;-66
2023/01/24 08:38:11;;;;;;;20.35;13.40;;;;;;;3.48;69.51;102560.94;4191420;28;20044;-66
2023/01/24 08:40:14;;;;;;;23.30;13.70;;;;;;;3.34;69.82;102566.69;4193751;28;20032;-66
2023/01/24 08:42:17;;;;;;;18.77;11.52;;;;;;;3.22;70.74;102570.88;4195530;28;20037;-66
2023/01/24 08:44:19;;;;;;;19.50;12.23;;;;;;;3.32;70.85;102563.09;4187483;28;20048;-66
2023/01/24 08:46:23;;;;;;;17.45;12.25;;;;;;;3.48;70.08;102565.19;4194738;28;20071;-66
2023/01/24 08:48:30;;;;;;;21.58;13.10;;;;;;;3.62;69.29;102561.09;4188581;28;20809;-65
2023/01/24 08:50:35;;;;;;;17.75;12.82;;;;;;;3.52;69.89;102564.66;4185911;28;20495;-65
2023/01/24 08:52:37;;;;;;;21.52;12.77;;;;;;;3.57;69.81;102565.88;4194313;28;20041;-64
2023/01/24 08:54:42;;;;;;;20.52;12.43;;;;;;;3.70;68.80;102560.00;4196309;28;20044;-65
2023/01/24 08:56:46;;;;;;;22.83;13.13;;;;;;;3.68;69.22;102559.00;4186987;28;20067;-64
2023/01/24 08:58:49;;;;;;;19.52;12.23;;;;;;;3.59;69.53;102561.78;4162738;28;20052;-65
2023/01/24 09:00:52;;;;;;;22.15;13.23;;;;;;;3.62;69.08;102556.84;4188951;28;20033;-65
2023/01/24 09:02:54;;;;;;;20.13;11.98;;;;;;;3.62;69.61;102556.84;4195587;28;20082;-65
2023/01/24 09:05:01;;;;;;;19.88;12.48;;;;;;;3.62;68.94;102559.44;4181512;28;20052;-64
2023/01/24 09:07:04;;;;;;;22.55;13.18;;;;;;;3.52;69.57;102568.88;4190034;28;20041;-63
2023/01/24 09:09:07;;;;;;;20.50;12.50;;;;;;;3.49;70.29;102567.88;4191140;28;20102;-64
2023/01/24 09:11:11;;;;;;;19.38;12.25;;;;;;;3.67;69.54;102580.34;4193415;28;20043;-63
2023/01/24 09:13:32;;;;;;;25.02;13.93;;;;;;;3.63;69.18;102584.34;4195247;28;20127;-63
2023/01/24 09:15:53;;;;;;;19.77;10.90;;;;;;;3.65;69.67;102584.47;4197078;28;20087;-63
2023/01/24 09:17:56;;;;;;;25.70;15.27;;;;;;;3.58;69.79;102584.81;4200443;28;20486;-64
2023/01/24 09:19:59;;;;;;;21.65;14.10;;;;;;;3.51;70.74;102592.81;4182499;28;20091;-63
2023/01/24 09:22:02;;;;;;;22.42;13.68;;;;;;;3.64;69.76;102591.28;4199926;28;20119;-65
2023/01/24 09:24:05;;;;;;;19.80;12.60;;;;;;;3.66;69.91;102596.56;4196627;28;20047;-64
2023/01/24 09:26:09;;;;;;;19.40;12.63;;;;;;;3.70;69.77;102597.69;4183779;28;20041;-64
2023/01/24 09:28:13;;;;;;;19.88;12.20;;;;;;;3.82;68.63;102585.75;4182887;28;20041;-65
2023/01/24 09:30:16;;;;;;;21.77;12.52;;;;;;;3.78;69.29;102600.09;4183939;28;20413;-63
2023/01/24 09:32:19;;;;;;;20.65;12.30;;;;;;;3.69;69.80;102593.31;4194525;28;20040;-65
2023/01/24 09:34:23;;;;;;;20.73;11.80;;;;;;;3.80;68.68;102593.38;4194268;28;20052;-63
2023/01/24 09:36:26;;;;;;;20.17;11.77;;;;;;;3.73;69.39;102596.25;4198718;28;20037;-62
2023/01/24 09:38:31;;;;;;;20.70;12.30;;;;;;;3.73;69.37;102595.38;4196163;28;20045;-62
2023/01/24 09:40:43;;;;;;;19.88;12.43;;;;;;;3.71;69.56;102589.19;4197287;28;20561;-62
2023/01/24 09:42:54;;;;;;;18.10;11.80;;;;;;;3.65;70.15;102582.81;4194502;28;20040;-62
2023/01/24 09:45:09;;;;;;;16.98;11.02;;;;;;;3.81;69.89;102573.66;4181266;28;20051;-62
2023/01/24 09:47:18;;;;;;;19.88;12.93;;;;;;;3.83;69.20;102583.31;4197126;28;20043;-63
2023/01/24 09:49:37;;;;;;;20.02;12.05;;;;;;;3.94;68.88;102588.38;4194646;28;20044;-63
2023/01/24 09:51:44;;;;;;;18.85;11.43;;;;;;;3.89;68.65;102587.13;4188710;28;20056;-62
2023/01/24 09:53:52;;;;;;;19.88;11.85;;;;;;;3.80;69.29;102585.66;4197272;28;20048;-63
2023/01/24 09:55:55;;;;;;;18.50;11.77;;;;;;;3.67;69.58;102598.34;4183232;28;20068;-62
2023/01/24 09:58:06;;;;;;;23.92;12.80;;;;;;;3.73;69.80;102603.97;4183687;28;20045;-62
2023/01/24 10:00:18;;;;;;;19.45;12.60;;;;;;;3.75;69.74;102605.00;4188144;28;20383;-63
2023/01/24 10:02:22;;;;;;;20.77;11.82;;;;;;;3.80;69.49;102607.91;4188841;28;20025;-63
2023/01/24 10:04:31;;;;;;;19.80;11.18;;;;;;;3.84;69.30;102604.78;4195877;28;20029;-63
2023/01/24 10:06:34;;;;;;;21.15;11.82;;;;;;;3.78;69.56;102607.81;4197881;28;20627;-63
2023/01/24 10:08:45;;;;;;;20.85;11.95;;;;;;;3.72;69.60;102611.56;4199485;28;20094;-63
2023/01/24 10:10:55;;;;;;;17.88;12.68;;;;;;;3.70;69.80;102605.44;4183000;28;20481;-63
2023/01/24 10:13:03;;;;;;;18.20;11.23;;;;;;;3.79;70.00;102611.25;4181821;28;20044;-64
2023/01/24 10:15:18;;;;;;;16.98;11.23;;;;;;;3.74;70.02;102603.19;4188801;28;20535;-63